Flight Track Log - Related Links

Times and Time Zones

All times are in EST time to prevent confusion due to time zone crossing. See the N612CT flight status page for this flight to view local times or setup timezone preferences in your user account.

Time Position Orientation Groundspeed Altitude Reporting Facility
EST Latitude Longitude Course Direction KTS MPH feet Rate Location/Type
Fri 08:58:25 PM 25.8022 -80.2814 40° Northeast 68 78 600  Level Miami Center
Fri 08:59:38 PM 25.8236 -80.2614 40° Northeast 75 86 1,600 761 Climbing Miami Center
Fri 09:00:39 PM 25.8406 -80.2481 35° Northeast 84 97 2,300 689 Climbing Miami Center
Fri 09:01:40 PM 25.8717 -80.2533 351° North 131 151 3,000 750 Climbing Miami Center
Fri 09:02:47 PM 25.9047 -80.2683 338° Northwest 124 143 3,900 541 Climbing Miami Center
Fri 09:03:42 PM 25.9269 -80.3011 307° West 151 174 4,100 103 Climbing Miami Center
Fri 09:04:43 PM 25.9447 -80.3525 291° West 183 211 4,100  Level Miami Center
Fri 09:05:44 PM 25.9622 -80.4039 291° West 184 212 4,100  Level Miami Center
Fri 09:06:39 PM 25.9778 -80.4528 290° West 183 211 4,100 52 Level Miami Center
Fri 09:07:40 PM 25.9972 -80.5044 293° West 183 211 4,200  Climbing Miami Center
Fri 09:08:35 PM 26.0275 -80.5444 310° West 181 208 4,100 -104 Descending Miami Center
Fri 09:09:35 PM 26.0728 -80.5714 332° Northwest 184 212 4,000 -50 Descending Miami Center
Fri 09:10:36 PM 26.1139 -80.6050 324° Northwest 180 207 4,000 141 Level Miami Center
Fri 09:11:43 PM 26.1417 -80.6569 301° West 174 200 4,300 469 Climbing Miami Center
Fri 09:12:44 PM 26.1617 -80.6967 299° West 144 166 5,000 709 Climbing Miami Center
Fri 09:13:50 PM 26.1900 -80.7300 313° West 145 167 5,800 714 Climbing Miami Center
Fri 09:14:50 PM 26.2183 -80.7589 318° Northwest 145 167 6,500 900 Climbing Miami Center
Fri 09:15:50 PM 26.2447 -80.7944 310° West 139 160 7,600 600 Climbing Miami Center
Fri 09:16:50 PM 26.2772 -80.8233 321° Northwest 139 160 7,700 -350 Climbing Miami Center
Fri 09:17:50 PM 26.3136 -80.8686 312° West 181 208 6,900 -750 Descending Miami Center
Fri 09:18:50 PM 26.3350 -80.9225 294° West 199 229 6,200 -400 Descending Miami Center
Fri 09:19:50 PM 26.3292 -80.9825 264° West 198 228 6,100 -50 Descending Miami Center
Fri 09:20:50 PM 26.3256 -81.0381 266° West 198 228 6,100 -50 Level Miami Center
Fri 09:21:50 PM 26.3239 -81.0961 268° West 198 228 6,000 -250 Descending Miami Center
Fri 09:22:50 PM 26.3181 -81.1561 264° West 198 228 5,600 -500 Descending Miami Center
Fri 09:23:50 PM 26.3078 -81.2136 259° West 198 228 5,000 -550 Descending Miami Center
Fri 09:24:50 PM 26.2914 -81.2731 253° West 198 228 4,500 -400 Descending Miami Center
Fri 09:25:50 PM 26.2772 -81.3306 255° West 198 228 4,200 -250 Descending Miami Center
Fri 09:26:50 PM 26.2611 -81.3808 250° West 198 228 4,000 -150 Descending Miami Center
Fri 09:27:50 PM 26.2467 -81.4383 254° West 198 228 3,900 -50 Descending Miami Center
Fri 09:28:50 PM 26.2325 -81.4908 253° West 193 222 3,900 -200 Level Miami Center
Fri 09:29:50 PM 26.2058 -81.5431 240° Southwest 193 222 3,500 -500 Descending Miami Center
Fri 09:30:50 PM 26.1769 -81.5975 239° Southwest 202 232 2,900 -600 Descending Miami Center
Fri 09:32:00 PM 26.1686 -81.6502 260° West  Level FlightAware Approximate
Fri 09:39:00 PM 26.1500 -81.7667 254° West  Level FlightAware Approximate
Fri 09:40:00 PM 26.1524 -81.7756 254° West  Level Estimated
Fri 09:41:00 PM 26.1524 -81.7756 254° West  Level Estimated
Fri 09:42:00 PM 26.1524 -81.7756 254° West  Level Estimated
Fri 09:43:00 PM 26.1524 -81.7756 254° West  Level Estimated
Fri 09:44:00 PM 26.1524 -81.7756 254° West  Level Estimated

Login

Don't have an account? Register now (free) for customized features, flight alerts, and more!